首页
METAR-TAF:

METAR-TAF

机场 :

海參崴, 俄罗斯

海參崴國際機場

纬度: 43-07N, 经度: 131-56E, 海拔: 184米

当前天气观测

该预报发布于19分钟前的03:00 UTC
风速14节,风向西北
温度 -4°C
湿度 30%
气压 1018 hPa
能见度10公里或以上
少量云层高于2600英尺

METAR: UHWW 200300Z 31007MPS 9999 FEW026 M04/M19 Q1018 R25L/410160 NOSIG RMK QFE762

时间: 13:19 (03:19 UTC)

预报

该预报发布于1小时和24分钟前的01:55 UTC
预报有效从20日的 03点(UTC)到 21日的 03点(UTC)
风速12节,风向
能见度10公里或以上
散云层高于3000英尺, 积雨云.
短暂存在
从 20日的 03点(UTC)到 21日的 03点(UTC)
风速14节,风向,有时为23节阵风
能見度: 4000
散云层高于1100英尺
多云层高于2000英尺, 积雨云.
小阵雪

TAF: UHWW 200155Z 2003/2103 35006MPS 9999 SCT030CB TEMPO 2003/2103 35007G12MPS 4000 -SHSN SCT011 BKN020CB

超过4000个机场的气象观测和天气预报(METAR&TAF报告)。

可查询的气象台以黄色和红色小点在地图上表示。

将鼠标移到小点上方,可查看气象台名称。

然后点击查看天气观测和预报。

如需切换地图:点击带黑十字的绿色按钮放大地图;点击带横线的绿色按钮缩小地图;或者点击绿色箭头查看邻近地区的地图。


METAR-TAF: